Map

Track Data

SID SEASON NUMBER BASIN SUBBASIN NAME ISO_TIME NATURE LAT LON WMO_WIND WMO_PRES WMO_AGENCY TRACK_TYPE DIST2LAND LANDFALL IFLAG USA_AGENCY USA_ATCF_ID USA_LAT USA_LON USA_RECORD USA_STATUS USA_WIND USA_PRES USA_SSHS USA_R34_NE USA_R34_SE USA_R34_SW USA_R34_NW USA_R50_NE USA_R50_SE USA_R50_SW USA_R50_NW USA_R64_NE USA_R64_SE USA_R64_SW USA_R64_NW USA_POCI USA_ROCI USA_RMW USA_EYE TOKYO_LAT TOKYO_LON TOKYO_GRADE TOKYO_WIND TOKYO_PRES TOKYO_R50_DIR TOKYO_R50_LONG TOKYO_R50_SHORT TOKYO_R30_DIR TOKYO_R30_LONG TOKYO_R30_SHORT TOKYO_LAND CMA_LAT CMA_LON CMA_CAT CMA_WIND CMA_PRES HKO_LAT HKO_LON HKO_CAT HKO_WIND HKO_PRES NEWDELHI_LAT NEWDELHI_LON NEWDELHI_GRADE NEWDELHI_WIND NEWDELHI_PRES NEWDELHI_CI NEWDELHI_DP NEWDELHI_POCI REUNION_LAT REUNION_LON REUNION_TYPE REUNION_WIND REUNION_PRES REUNION_TNUM REUNION_CI REUNION_RMW REUNION_R34_NE REUNION_R34_SE REUNION_R34_SW REUNION_R34_NW REUNION_R50_NE REUNION_R50_SE REUNION_R50_SW REUNION_R50_NW REUNION_R64_NE REUNION_R64_SE REUNION_R64_SW REUNION_R64_NW BOM_LAT BOM_LON BOM_TYPE BOM_WIND BOM_PRES BOM_TNUM BOM_CI BOM_RMW BOM_R34_NE BOM_R34_SE BOM_R34_SW BOM_R34_NW BOM_R50_NE BOM_R50_SE BOM_R50_SW BOM_R50_NW BOM_R64_NE BOM_R64_SE BOM_R64_SW BOM_R64_NW BOM_ROCI BOM_POCI BOM_EYE BOM_POS_METHOD BOM_PRES_METHOD NADI_LAT NADI_LON NADI_CAT NADI_WIND NADI_PRES WELLINGTON_LAT WELLINGTON_LON WELLINGTON_WIND WELLINGTON_PRES DS824_LAT DS824_LON DS824_STAGE DS824_WIND DS824_PRES TD9636_LAT TD9636_LON TD9636_STAGE TD9636_WIND TD9636_PRES TD9635_LAT TD9635_LON TD9635_WIND TD9635_PRES TD9635_ROCI NEUMANN_LAT NEUMANN_LON NEUMANN_CLASS NEUMANN_WIND NEUMANN_PRES MLC_LAT MLC_LON MLC_CLASS MLC_WIND MLC_PRES USA_GUST BOM_GUST BOM_GUST_PER REUNION_GUST REUNION_GUST_PER USA_SEAHGT USA_SEARAD_NE USA_SEARAD_SE USA_SEARAD_SW USA_SEARAD_NW STORM_SPEED STORM_DIR
1961155N16110 1961 43 WP MM NOT_NAMED 1961-06-03 12:00:00 TS 16.0000 110.000 main 148 148 __O___________ -1 16.0000 110.000 0 1005 11 124
1961155N16110 1961 43 WP MM NOT_NAMED 1961-06-03 15:00:00 TS 15.6953 110.465 main 180 177 __P___________ -1 15.6953 110.465 0 1005 11 125
1961155N16110 1961 43 WP MM NOT_NAMED 1961-06-03 18:00:00 TS 15.4000 110.900 main 208 208 __O___________ -1 15.4000 110.900 0 1005 10 125
1961155N16110 1961 43 WP MM NOT_NAMED 1961-06-03 21:00:00 TS 15.1398 111.293 main 240 240 __P___________ -1 15.1398 111.293 0 1005 9 117
1961155N16110 1961 43 WP MM NOT_NAMED 1961-06-04 00:00:00 TS 15.0000 111.700 main 281 281 __O___________ -1 15.0000 111.700 0 1005 8 97
1961155N16110 1961 43 WP MM NOT_NAMED 1961-06-04 03:00:00 TS 15.0398 112.162 main 335 335 __P___________ -1 15.0398 112.162 0 1005 10 78
1961155N16110 1961 43 WP MM NOT_NAMED 1961-06-04 06:00:00 TS 15.2000 112.700 main 390 390 __O___________ -1 15.2000 112.700 0 1005 12 73
1961155N16110 1961 43 WP MM NOT_NAMED 1961-06-04 09:00:00 TS 15.3852 113.350 main 457 457 __P___________ -1 15.3852 113.350 0 1005 13 72
1961155N16110 1961 43 WP MM NOT_NAMED 1961-06-04 12:00:00 TS 15.6000 114.000 main 516 516 __O___________ -1 15.6000 114.000 0 1005 12 71
1961155N16110 1961 43 WP MM NOT_NAMED 1961-06-04 15:00:00 TS 15.7924 114.560 main 546 502 __P___________ -1 15.7924 114.560 0 1004 10 67
1961155N16110 1961 43 WP MM NOT_NAMED 1961-06-04 18:00:00 TS 16.0000 115.000 main 502 460 __O___________ -1 16.0000 115.000 1 23 1004 9 61
1961155N16110 1961 43 WP MM NOT_NAMED 1961-06-04 21:00:00 TS 16.2422 115.400 main 460 449 __P___________ -1 16.2422 115.400 1 23 1004 7 44
1961155N16110 1961 43 WP MM NOT_NAMED 1961-06-05 00:00:00 TS 16.5000 115.500 main 451 451 __O___________ -1 16.5000 115.500 1 23 1004 6 334
1961155N16110 1961 43 WP MM NOT_NAMED 1961-06-05 03:00:00 TS 16.8103 115.113 main 498 468 __P___________ -1 16.8103 115.113 1 23 1004 11 298
1961155N16110 1961 43 WP MM NOT_NAMED 1961-06-05 06:00:00 TS 17.0000 114.500 main 468 427 __O___________ -1 17.0000 114.500 1 23 1004 11 275
1961155N16110 1961 43 WP MM NOT_NAMED 1961-06-05 09:00:00 TS 16.9024 114.000 main 427 395 __P___________ -1 16.9024 114.000 1 23 1003 10 253
1961155N16110 1961 43 WP MM NOT_NAMED 1961-06-05 12:00:00 TS 16.7000 113.500 main 395 369 __O___________ -1 16.7000 113.500 1 23 1003 11 249
1961155N16110 1961 43 WP MM NOT_NAMED 1961-06-05 15:00:00 TS 16.5251 112.962 main 369 331 __P___________ -1 16.5251 112.962 1 23 1002 10 258
1961155N16110 1961 43 WP MM NOT_NAMED 1961-06-05 18:00:00 TS 16.5000 112.500 main 331 294 __O___________ -1 16.5000 112.500 1 23 1002 8 288
1961155N16110 1961 43 WP MM NOT_NAMED 1961-06-05 21:00:00 TS 16.7599 112.190 main 285 246 __P___________ -1 16.7599 112.190 1 23 1002 8 324
1961155N16110 1961 43 WP MM NOT_NAMED 1961-06-06 00:00:00 TS 17.1600 112.000 main 238 199 __OO__________ -1 17.2000 112.000 1 23 1002 17.0000 112.000 TD 25 1002 9 345
1961155N16110 1961 43 WP MM NOT_NAMED 1961-06-06 03:00:00 TS 17.6549 111.943 main 192 167 __PP__________ -1 17.7073 111.915 1 23 1001 17.5500 112.000 TD 25 1002 10 354
1961155N16110 1961 43 WP MM NOT_NAMED 1961-06-06 06:00:00 TS 18.1571 111.886 main 162 128 __OO__________ -1 18.2000 111.800 1 23 1000 18.1000 112.000 TD 25 1002 9 344
1961155N16110 1961 43 WP MM NOT_NAMED 1961-06-06 09:00:00 TS 18.5233 111.678 main 128 100 __PP__________ -1 18.5599 111.518 1 23 1000 18.4500 112.000 TD 25 1002 7 319
1961155N16110 1961 43 WP MM NOT_NAMED 1961-06-06 12:00:00 TS 18.6571 111.429 main 90 38 O_OO_____O____ jtwc_wp WP341961 18.3000 111.800 -1 18.8000 111.100 1 23 1000 18.8000 112.000 TD 25 1002 18.3000 111.800 TC 8 289
1961155N16110 1961 43 WP MM NOT_NAMED 1961-06-06 15:00:00 TS 18.7956 110.831 main 30 0 P_P______P____ WP341961 18.6015 111.051 -1 18.9898 110.610 1 21 1000 TD 18.6015 111.051 TC 12 283
1961155N16110 1961 43 WP MM NOT_NAMED 1961-06-06 18:00:00 TS 18.9400 110.180 main 0 0 O_O______O____ jtwc_wp WP341961 18.9000 110.300 -1 19.0000 110.000 0 19 1000 18.9000 110.300 TC 14 274
1961155N16110 1961 43 WP MM NOT_NAMED 1961-06-06 21:00:00 TS 18.8934 109.386 main 0 0 P_P______P____ WP341961 19.1017 109.501 -1 18.6851 109.271 0 19 1000 19.1017 109.501 TC 15 261
1961155N16110 1961 43 WP MM NOT_NAMED 1961-06-07 00:00:00 TS 18.7000 108.567 main 10 10 O_O______O____ jtwc_wp WP341961 19.3000 108.700 -1 18.4000 108.500 0 19 1000 19.3000 108.700 TC 16 257
1961155N16110 1961 43 WP MM NOT_NAMED 1961-06-07 03:00:00 TS 18.5252 107.734 main 105 105 __P___________ WP341961 -1 18.5252 107.734 0 18 1000 TC 14 274
1961155N16110 1961 43 WP MM NOT_NAMED 1961-06-07 06:00:00 TS 18.8000 107.100 main 107 94 __O___________ -1 18.8000 107.100 0 17 1000 11 296
1961155N16110 1961 43 WP MM NOT_NAMED 1961-06-07 09:00:00 TS 18.9921 106.732 main 98 74 __P___________ -1 18.9921 106.732 0 17 1000 7 305
1961155N16110 1961 43 WP MM NOT_NAMED 1961-06-07 12:00:00 TS 19.2000 106.500 main 74 52 __O___________ -1 19.2000 106.500 0 17 1000 6 317
1961155N16110 1961 43 WP MM NOT_NAMED 1961-06-07 15:00:00 TS 19.4573 106.265 main 52 15 __P___________ -1 19.4573 106.265 0 17 1000 7 317
1961155N16110 1961 43 WP MM NOT_NAMED 1961-06-07 18:00:00 TS 19.7000 106.000 main 15 0 __O___________ -1 19.7000 106.000 0 17 1001 7 306
1961155N16110 1961 43 WP MM NOT_NAMED 1961-06-07 21:00:00 TS 19.8799 105.637 main 0 0 __P___________ -1 19.8799 105.637 0 17 1001 8 292
1961155N16110 1961 43 WP MM NOT_NAMED 1961-06-08 00:00:00 TS 20.0000 105.200 main 0 0 __O___________ -1 20.0000 105.200 0 17 1001 9 282
1961155N16110 1961 43 WP MM NOT_NAMED 1961-06-08 03:00:00 TS 20.0653 104.712 main 0 0 __P___________ -1 20.0653 104.712 0 17 1001 9 276
1961155N16110 1961 43 WP MM NOT_NAMED 1961-06-08 06:00:00 TS 20.1000 104.200 main 0 __O___________ -1 20.1000 104.200 0 17 1002 10 274

Digital Typhoon Data and Search

About IBTrACS Database

This database is a web-friendly format of International Best Track Archive for Climate Stewardship (IBTrACS), a global best track data archive curated by NOAA dating back to 1842.

Updated: 2021-12-01